createdAt,value
2023-04-05T00:01:08.035Z,5.98
2023-04-05T00:03:35.453Z,5.94
2023-04-05T00:06:02.978Z,5.91
2023-04-05T00:08:29.743Z,5.86
2023-04-05T00:10:56.313Z,5.81
2023-04-05T00:13:22.894Z,5.78
2023-04-05T00:15:49.749Z,5.73
2023-04-05T00:18:22.287Z,5.68
2023-04-05T00:20:49.512Z,5.64
2023-04-05T00:23:17.569Z,5.60
2023-04-05T00:25:44.779Z,5.54
2023-04-05T00:28:11.662Z,5.51
2023-04-05T00:30:38.194Z,5.47
2023-04-05T00:33:05.015Z,5.43
2023-04-05T00:35:31.794Z,5.39
2023-04-05T00:37:58.336Z,5.34
2023-04-05T00:40:25.093Z,5.31
2023-04-05T00:42:51.630Z,5.27
2023-04-05T00:45:18.139Z,5.22
2023-04-05T00:47:45.195Z,5.18
2023-04-05T00:50:13.625Z,5.15
2023-04-05T00:52:43.612Z,5.10
2023-04-05T00:55:10.920Z,5.07
2023-04-05T00:57:39.342Z,5.04
2023-04-05T01:00:09.652Z,5.02
2023-04-05T01:02:39.882Z,4.99
2023-04-05T01:05:14.412Z,4.95
2023-04-05T01:07:46.600Z,4.92
2023-04-05T01:10:14.620Z,4.88
2023-04-05T01:12:41.775Z,4.86
2023-04-05T01:15:08.648Z,4.81
2023-04-05T01:17:39.379Z,4.78
2023-04-05T01:20:13.473Z,4.74
2023-04-05T01:22:58.709Z,4.71
2023-04-05T01:25:31.014Z,4.66
2023-04-05T01:28:00.784Z,4.63
2023-04-05T01:30:32.200Z,4.60
2023-04-05T01:33:15.898Z,4.58
2023-04-05T01:36:01.066Z,4.56
2023-04-05T01:38:28.253Z,4.55
2023-04-05T01:40:55.022Z,4.51
2023-04-05T01:43:21.544Z,4.49
2023-04-05T01:45:48.255Z,4.46
2023-04-05T01:48:15.183Z,4.43
2023-04-05T01:50:41.887Z,4.40
2023-04-05T01:53:08.649Z,4.36
2023-04-05T01:55:35.147Z,4.33
2023-04-05T01:58:01.699Z,4.29
2023-04-05T02:00:28.354Z,4.27
2023-04-05T02:02:54.912Z,4.24
2023-04-05T02:05:21.451Z,4.22
2023-04-05T02:07:47.957Z,4.19
2023-04-05T02:10:14.621Z,4.16
2023-04-05T02:12:41.139Z,4.15
2023-04-05T02:15:07.941Z,4.12
2023-04-05T02:17:40.731Z,4.12
2023-04-05T02:20:07.905Z,4.09
2023-04-05T02:22:34.422Z,4.07
2023-04-05T02:25:01.593Z,4.04
2023-04-05T02:30:02.957Z,3.98
2023-04-05T02:32:29.528Z,3.94
2023-04-05T02:34:56.252Z,3.91
2023-04-05T02:37:22.951Z,3.89
2023-04-05T02:39:49.556Z,3.87
2023-04-05T02:42:16.117Z,3.85
2023-04-05T02:44:42.654Z,3.83
2023-04-05T02:47:09.200Z,3.79
2023-04-05T02:49:35.953Z,3.76
2023-04-05T02:52:02.449Z,3.74
2023-04-05T02:54:29.040Z,3.70
2023-04-05T02:56:57.892Z,3.69
2023-04-05T02:59:24.607Z,3.67
2023-04-05T03:01:51.169Z,3.65
2023-04-05T03:04:17.665Z,3.63
2023-04-05T03:06:46.545Z,3.62
2023-04-05T03:09:14.564Z,3.59
2023-04-05T03:11:41.084Z,3.58
2023-04-05T03:14:07.634Z,3.57
2023-04-05T03:16:34.679Z,3.55
2023-04-05T03:19:02.533Z,3.53
2023-04-05T03:21:30.099Z,3.51
2023-04-05T03:23:56.774Z,3.49
2023-04-05T03:26:23.360Z,3.47
2023-04-05T03:28:49.895Z,3.46
2023-04-05T03:31:18.947Z,3.43
2023-04-05T03:33:47.088Z,3.42
2023-04-05T03:36:16.776Z,3.40
2023-04-05T03:38:44.493Z,3.36
2023-04-05T03:41:10.965Z,3.34
2023-04-05T03:43:38.056Z,3.32
2023-04-05T03:46:04.776Z,3.30
2023-04-05T03:48:31.323Z,3.29
2023-04-05T03:50:57.859Z,3.26
2023-04-05T03:53:24.510Z,3.24
2023-04-05T03:55:54.383Z,3.22
2023-04-05T03:58:21.026Z,3.21
2023-04-05T04:00:47.787Z,3.20
2023-04-05T04:03:15.384Z,3.18
2023-04-05T04:05:42.390Z,3.17
2023-04-05T04:08:09.928Z,3.19
2023-04-05T04:10:36.744Z,3.37
2023-04-05T04:13:03.240Z,3.69
2023-04-05T04:15:29.849Z,4.10
2023-04-05T04:17:56.876Z,4.58
2023-04-05T04:20:23.492Z,5.09
2023-04-05T04:22:50.210Z,5.61
2023-04-05T04:25:18.939Z,6.12
2023-04-05T04:27:46.801Z,6.61
2023-04-05T04:30:15.024Z,7.09
2023-04-05T04:32:58.854Z,7.55
2023-04-05T04:35:28.093Z,8.00
2023-04-05T04:38:01.610Z,8.40
2023-04-05T04:40:38.832Z,8.79
2023-04-05T04:43:17.241Z,9.09
2023-04-05T04:45:47.247Z,9.30
2023-04-05T04:48:14.647Z,9.42
2023-04-05T04:50:41.179Z,9.43
2023-04-05T04:53:07.705Z,9.39
2023-04-05T04:55:36.346Z,9.32
2023-04-05T04:58:10.070Z,9.19
2023-04-05T05:00:39.413Z,9.03
2023-04-05T05:03:07.213Z,8.86
2023-04-05T05:05:33.818Z,8.65
2023-04-05T05:08:00.408Z,8.44
2023-04-05T05:10:26.953Z,8.26
2023-04-05T05:12:53.995Z,8.06
2023-04-05T05:15:20.551Z,7.85
2023-04-05T05:17:47.410Z,7.71
2023-04-05T05:20:14.019Z,7.70
2023-04-05T05:22:40.689Z,7.78
2023-04-05T05:25:07.551Z,7.93
2023-04-05T05:27:34.214Z,8.13
2023-04-05T05:30:01.367Z,8.33
2023-04-05T05:32:28.028Z,8.52
2023-04-05T05:34:54.628Z,8.64
2023-04-05T05:37:22.541Z,8.70
2023-04-05T05:39:49.045Z,8.68
2023-04-05T05:42:15.554Z,8.63
2023-04-05T05:44:42.090Z,8.55
2023-04-05T05:47:08.614Z,8.42
2023-04-05T05:49:35.197Z,8.29
2023-04-05T05:52:01.865Z,8.17
2023-04-05T05:54:28.481Z,8.02
2023-04-05T05:56:55.026Z,7.88
2023-04-05T05:59:21.601Z,7.76
2023-04-05T06:01:48.579Z,7.63
2023-04-05T06:04:15.295Z,7.51
2023-04-05T06:06:44.000Z,7.40
2023-04-05T06:09:10.953Z,7.27
2023-04-05T06:11:43.582Z,7.17
2023-04-05T06:14:20.041Z,7.06
2023-04-05T06:16:46.778Z,6.97
2023-04-05T06:19:13.304Z,6.89
2023-04-05T06:21:39.838Z,6.82
2023-04-05T06:24:06.421Z,6.75
2023-04-05T06:26:32.964Z,6.69
2023-04-05T06:28:59.493Z,6.63
2023-04-05T06:31:26.927Z,6.58
2023-04-05T06:33:53.496Z,6.53
2023-04-05T06:36:20.068Z,6.49
2023-04-05T06:38:46.843Z,6.46
2023-04-05T06:41:13.385Z,6.44
2023-04-05T06:43:39.936Z,6.42
2023-04-05T06:46:09.703Z,6.41
2023-04-05T06:48:36.631Z,6.41
2023-04-05T06:51:03.459Z,6.40
2023-04-05T06:53:30.571Z,6.40
2023-04-05T06:55:58.130Z,6.40
2023-04-05T06:58:25.000Z,6.41
2023-04-05T07:00:51.686Z,6.44
2023-04-05T07:03:18.668Z,6.45
2023-04-05T07:05:54.312Z,6.46
2023-04-05T07:08:21.459Z,6.48
2023-04-05T07:10:48.392Z,6.49
2023-04-05T07:13:14.929Z,6.52
2023-04-05T07:15:41.508Z,6.56
2023-04-05T07:18:08.490Z,6.57
2023-04-05T07:20:35.051Z,6.59
2023-04-05T07:23:01.522Z,6.62
2023-04-05T07:25:28.022Z,6.65
2023-04-05T07:27:54.536Z,6.69
2023-04-05T07:30:21.122Z,6.72
2023-04-05T07:32:47.635Z,6.76
2023-04-05T07:35:14.187Z,6.79
2023-04-05T07:37:40.843Z,6.82
2023-04-05T07:40:09.042Z,6.84
2023-04-05T07:42:35.615Z,6.89
2023-04-05T07:45:02.136Z,6.93
2023-04-05T07:47:28.714Z,6.98
2023-04-05T07:49:55.243Z,7.03
2023-04-05T07:52:21.703Z,7.07
2023-04-05T07:54:48.240Z,7.13
2023-04-05T07:57:18.651Z,7.18
2023-04-05T07:59:45.399Z,7.22
2023-04-05T08:02:14.488Z,7.26
2023-04-05T08:04:41.968Z,7.31
2023-04-05T08:07:08.836Z,7.36
2023-04-05T08:09:35.898Z,7.43
2023-04-05T08:12:02.982Z,7.52
2023-04-05T08:14:29.538Z,7.60
2023-04-05T08:16:56.155Z,7.72
2023-04-05T08:19:22.732Z,7.84
2023-04-05T08:21:49.256Z,7.96
2023-04-05T08:24:15.854Z,8.09
2023-04-05T08:26:43.529Z,8.22
2023-04-05T08:29:10.080Z,8.32
2023-04-05T08:31:36.905Z,8.43
2023-04-05T08:34:05.500Z,8.54
2023-04-05T08:36:32.058Z,8.63
2023-04-05T08:38:58.563Z,8.73
2023-04-05T08:41:27.344Z,8.82
2023-04-05T08:43:57.997Z,8.91
2023-04-05T08:46:24.922Z,9.01
2023-04-05T08:48:51.546Z,9.10
2023-04-05T08:51:21.833Z,9.21
2023-04-05T08:53:48.721Z,9.32
2023-04-05T08:56:17.083Z,9.43
2023-04-05T08:58:49.583Z,9.56
2023-04-05T09:01:16.806Z,9.66
2023-04-05T09:03:44.076Z,9.81
2023-04-05T09:06:12.729Z,9.95
2023-04-05T09:08:39.317Z,10.12
2023-04-05T09:11:06.496Z,10.25
2023-04-05T09:13:33.035Z,10.39
2023-04-05T09:16:01.359Z,10.50
2023-04-05T09:18:28.033Z,10.62
2023-04-05T09:21:03.193Z,10.70
2023-04-05T09:23:29.692Z,10.76
2023-04-05T09:25:56.258Z,10.81
2023-04-05T09:28:22.795Z,10.87
2023-04-05T09:30:49.514Z,10.93
2023-04-05T09:33:18.964Z,11.01
2023-04-05T09:35:45.548Z,11.09
2023-04-05T09:38:12.071Z,11.18
2023-04-05T09:40:48.643Z,11.25
2023-04-05T09:43:35.518Z,11.33
2023-04-05T09:46:02.211Z,11.40
2023-04-05T09:48:48.753Z,11.45
2023-04-05T09:51:15.967Z,11.50
2023-04-05T09:54:02.702Z,11.55
2023-04-05T09:56:30.572Z,11.61
2023-04-05T09:59:06.707Z,11.65
2023-04-05T10:01:33.844Z,11.70
2023-04-05T10:04:00.943Z,11.77
2023-04-05T10:06:39.742Z,11.88
2023-04-05T10:09:07.227Z,12.02
2023-04-05T10:11:34.573Z,12.18
2023-04-05T10:14:04.001Z,12.37
2023-04-05T10:16:32.467Z,12.58
2023-04-05T14:29:02.243Z,20.10
2023-04-05T14:31:28.997Z,20.02
2023-04-05T14:33:55.650Z,19.97
2023-04-05T14:36:22.255Z,19.91
2023-04-05T14:38:48.942Z,19.79
2023-04-05T14:41:15.694Z,19.69
2023-04-05T14:43:42.368Z,19.59
2023-04-05T14:46:09.119Z,19.51
2023-04-05T14:48:35.874Z,19.44
2023-04-05T14:51:02.415Z,19.39
2023-04-05T14:53:28.957Z,19.35
2023-04-05T14:55:55.494Z,19.34
2023-04-05T14:58:22.032Z,19.34
2023-04-05T15:00:52.395Z,19.37
2023-04-05T15:03:19.890Z,19.42
2023-04-05T15:05:47.267Z,19.46
2023-04-05T15:08:14.466Z,19.51
2023-04-05T15:10:43.062Z,19.54
2023-04-05T15:13:10.651Z,19.57
2023-04-05T15:15:37.685Z,19.57
2023-04-05T15:18:04.391Z,19.53
2023-04-05T15:20:31.263Z,19.51
2023-04-05T15:22:57.963Z,19.47
2023-04-05T15:25:24.529Z,19.43
2023-04-05T15:27:51.432Z,19.40
2023-04-05T15:30:18.072Z,19.41
2023-04-05T15:32:44.692Z,19.36
2023-04-05T15:35:11.585Z,19.36
2023-04-05T15:37:39.369Z,19.32
2023-04-05T15:40:06.711Z,19.25
2023-04-05T15:42:36.275Z,19.18
2023-04-05T15:45:02.860Z,19.10
2023-04-05T15:47:29.492Z,19.02
2023-04-05T15:49:56.404Z,18.96
2023-04-05T15:52:22.933Z,18.91
2023-04-05T15:54:49.506Z,18.86
2023-04-05T15:57:16.193Z,18.82
2023-04-05T15:59:42.856Z,18.78
2023-04-05T16:02:09.803Z,18.73
2023-04-05T16:04:36.725Z,18.70
2023-04-05T16:07:03.268Z,18.67
2023-04-05T16:09:30.184Z,18.65
2023-04-05T16:11:57.066Z,18.59
2023-04-05T16:14:23.619Z,18.55
2023-04-05T16:16:54.068Z,18.51
2023-04-05T16:19:21.127Z,18.46
2023-04-05T16:21:47.983Z,18.41
2023-04-05T16:24:14.520Z,18.36
2023-04-05T16:26:41.493Z,18.27
2023-04-05T16:29:08.039Z,18.18
2023-04-05T16:31:36.363Z,18.06
2023-04-05T16:34:03.167Z,17.94
2023-04-05T16:36:29.761Z,17.81
2023-04-05T16:38:56.390Z,17.67
2023-04-05T16:41:22.973Z,17.53
2023-04-05T16:43:49.525Z,17.42
2023-04-05T16:46:16.115Z,17.29
2023-04-05T16:48:42.645Z,17.18
2023-04-05T16:51:09.273Z,17.06
2023-04-05T16:53:35.970Z,16.95
2023-04-05T16:56:02.484Z,16.85
2023-04-05T16:58:29.802Z,16.76
2023-04-05T17:00:58.982Z,16.67
2023-04-05T17:03:26.026Z,16.59
2023-04-05T17:05:52.733Z,16.53
2023-04-05T17:08:19.506Z,16.47
2023-04-05T17:10:46.067Z,16.43
2023-04-05T17:13:12.613Z,16.38
2023-04-05T17:15:39.157Z,16.34
2023-04-05T17:18:06.533Z,16.28
2023-04-05T17:20:33.248Z,16.24
2023-04-05T17:23:01.093Z,16.20
2023-04-05T17:25:27.746Z,16.14
2023-04-05T17:27:54.353Z,16.09
2023-04-05T17:30:21.292Z,16.04
2023-04-05T17:32:48.004Z,15.99
2023-04-05T17:35:14.729Z,15.95
2023-04-05T17:37:41.284Z,15.90
2023-04-05T17:40:08.057Z,15.85
2023-04-05T17:42:34.856Z,15.80
2023-04-05T17:45:01.628Z,15.74
2023-04-05T17:47:28.271Z,15.66
2023-04-05T17:49:54.894Z,15.60
2023-04-05T17:52:22.775Z,15.52
2023-04-05T17:54:49.382Z,15.44
2023-04-05T17:57:16.095Z,15.34
2023-04-05T17:59:43.167Z,15.25
2023-04-05T18:02:13.363Z,15.16
2023-04-05T18:04:40.409Z,15.06
2023-04-05T18:07:07.694Z,14.97
2023-04-05T18:09:34.600Z,14.87
2023-04-05T18:12:01.790Z,14.78
2023-04-05T18:14:28.324Z,14.69
2023-04-05T18:16:55.004Z,14.61
2023-04-05T18:19:21.720Z,14.52
2023-04-05T18:21:48.333Z,14.43
2023-04-05T18:24:14.997Z,14.35
2023-04-05T18:26:41.779Z,14.25
2023-04-05T18:29:08.481Z,14.16
2023-04-05T18:31:35.286Z,14.07
2023-04-05T18:34:01.933Z,13.97
2023-04-05T18:36:28.494Z,13.86
2023-04-05T18:38:58.489Z,13.70
2023-04-05T18:41:25.162Z,13.59
2023-04-05T18:43:54.882Z,13.47
2023-04-05T18:46:22.654Z,13.37
2023-04-05T18:48:54.798Z,13.27
2023-04-05T18:51:22.309Z,13.18
2023-04-05T18:53:49.026Z,13.10
2023-04-05T18:56:15.966Z,13.02
2023-04-05T18:58:42.597Z,12.96
2023-04-05T19:01:14.995Z,12.86
2023-04-05T19:03:41.967Z,12.79
2023-04-05T19:06:08.596Z,12.71
2023-04-05T19:08:35.160Z,12.62
2023-04-05T19:11:01.832Z,12.54
2023-04-05T19:13:28.457Z,12.46
2023-04-05T19:15:55.225Z,12.36
2023-04-05T19:18:25.827Z,12.28
2023-04-05T19:20:56.452Z,12.18
2023-04-05T19:23:23.174Z,12.11
2023-04-05T19:25:49.785Z,12.03
2023-04-05T19:28:16.556Z,11.96
2023-04-05T19:30:43.967Z,11.89
2023-04-05T19:33:10.621Z,11.82
2023-04-05T19:35:37.368Z,11.76
2023-04-05T19:38:04.768Z,11.68
2023-04-05T19:40:31.847Z,11.61
2023-04-05T19:42:59.809Z,11.50
2023-04-05T19:45:27.223Z,11.41
2023-04-05T19:47:54.244Z,11.33
2023-04-05T19:50:35.774Z,11.24
2023-04-05T19:53:02.324Z,11.15
2023-04-05T19:55:31.726Z,11.06
2023-04-05T19:57:59.118Z,10.95
2023-04-05T20:00:28.481Z,10.84
2023-04-05T20:02:55.206Z,10.74
2023-04-05T20:05:41.762Z,10.63
2023-04-05T20:08:08.563Z,10.53
2023-04-05T20:10:40.623Z,10.44
2023-04-05T20:13:07.672Z,10.34
2023-04-05T20:15:37.600Z,10.25
2023-04-05T20:18:08.795Z,10.16
2023-04-05T20:20:35.565Z,10.06
2023-04-05T20:23:02.189Z,9.95
2023-04-05T20:25:39.467Z,9.84
2023-04-05T20:28:21.979Z,9.74
2023-04-05T20:30:51.126Z,9.66
2023-04-05T20:33:42.280Z,9.57
2023-04-05T20:36:11.908Z,9.49
2023-04-05T20:38:39.375Z,9.43
2023-04-05T20:41:06.157Z,9.36
2023-04-05T20:43:32.931Z,9.28
2023-04-05T20:46:06.336Z,9.21
2023-04-05T20:48:33.494Z,9.12
2023-04-05T20:51:00.550Z,9.05
2023-04-05T20:53:27.918Z,8.98
2023-04-05T20:55:54.675Z,8.92
2023-04-05T20:58:21.298Z,8.85
2023-04-05T21:00:48.250Z,8.79
2023-04-05T21:03:15.121Z,8.71
2023-04-05T21:05:42.054Z,8.64
2023-04-05T21:08:08.887Z,8.57
2023-04-05T21:10:35.474Z,8.49
2023-04-05T21:13:02.079Z,8.42
2023-04-05T21:15:31.400Z,8.35
2023-04-05T21:18:00.756Z,8.28
2023-04-05T21:20:28.039Z,8.20
2023-04-05T21:22:55.362Z,8.14
2023-04-05T21:25:21.939Z,8.08
2023-04-05T21:27:48.540Z,8.02
2023-04-05T21:30:15.484Z,7.96
2023-04-05T21:32:42.186Z,7.90
2023-04-05T21:35:09.252Z,7.83
2023-04-05T21:37:35.917Z,7.78
2023-04-05T21:40:04.224Z,7.73
2023-04-05T21:42:31.638Z,7.67
2023-04-05T21:44:58.171Z,7.61
2023-04-05T21:47:24.864Z,7.56
2023-04-05T21:49:52.872Z,7.51
2023-04-05T21:52:19.457Z,7.45
2023-04-05T21:54:46.327Z,7.40
2023-04-05T21:57:12.850Z,7.35
2023-04-05T21:59:39.444Z,7.29
2023-04-05T22:02:07.053Z,7.24
2023-04-05T22:04:33.665Z,7.19
2023-04-05T22:07:00.179Z,7.12
2023-04-05T22:09:28.268Z,7.07
2023-04-05T22:11:55.283Z,7.01
2023-04-05T22:14:21.894Z,6.95
2023-04-05T22:16:48.454Z,6.87
2023-04-05T22:19:15.141Z,6.80
2023-04-05T22:21:42.102Z,6.75
2023-04-05T22:24:09.538Z,6.69
2023-04-05T22:26:36.370Z,6.65
2023-04-05T22:29:03.307Z,6.59
2023-04-05T22:31:29.878Z,6.56
2023-04-05T22:33:56.532Z,6.51
2023-04-05T22:36:22.995Z,6.48
2023-04-05T22:38:50.697Z,6.44
2023-04-05T22:41:18.139Z,6.40
2023-04-05T22:43:44.647Z,6.37
2023-04-05T22:46:11.253Z,6.35
2023-04-05T22:48:37.802Z,6.32
2023-04-05T22:51:04.340Z,6.28
2023-04-05T22:53:30.907Z,6.25
2023-04-05T22:55:57.378Z,6.22
2023-04-05T22:58:23.864Z,6.18
2023-04-05T23:00:50.589Z,6.15
2023-04-05T23:03:17.111Z,6.12
2023-04-05T23:05:43.692Z,6.06
2023-04-05T23:08:10.186Z,6.04
2023-04-05T23:10:36.771Z,6.00
2023-04-05T23:13:03.272Z,5.98
2023-04-05T23:15:29.848Z,5.96
2023-04-05T23:17:56.387Z,5.94
2023-04-05T23:20:22.877Z,5.91
2023-04-05T23:22:49.396Z,5.89
2023-04-05T23:25:16.101Z,5.85
2023-04-05T23:27:42.672Z,5.83
2023-04-05T23:30:09.403Z,5.80
2023-04-05T23:32:36.024Z,5.78
2023-04-05T23:35:02.643Z,5.75
2023-04-05T23:37:29.151Z,5.72
2023-04-05T23:39:55.746Z,5.71
2023-04-05T23:42:22.314Z,5.66
2023-04-05T23:44:48.804Z,5.63
2023-04-05T23:47:15.361Z,5.58
2023-04-05T23:49:42.049Z,5.55
2023-04-05T23:52:08.568Z,5.52
2023-04-05T23:54:35.093Z,5.48
2023-04-05T23:57:02.102Z,5.46
2023-04-05T23:59:28.643Z,5.42
